sensor_id;sensor_type;location;lat;lon;timestamp;P1;durP1;ratioP1;P2;durP2;ratioP2
16862;SDS011;52193;48.216;-1.698;2022-12-20T00:01:05;15.10;;;13.52;;
16862;SDS011;52193;48.216;-1.698;2022-12-20T00:03:33;13.73;;;12.50;;
16862;SDS011;52193;48.216;-1.698;2022-12-20T00:06:00;15.77;;;12.82;;
16862;SDS011;52193;48.216;-1.698;2022-12-20T00:08:27;19.13;;;12.43;;
16862;SDS011;52193;48.216;-1.698;2022-12-20T00:10:55;16.70;;;12.65;;
16862;SDS011;52193;48.216;-1.698;2022-12-20T00:13:25;14.10;;;12.45;;
16862;SDS011;52193;48.216;-1.698;2022-12-20T00:16:01;13.05;;;11.75;;
16862;SDS011;52193;48.216;-1.698;2022-12-20T00:18:30;14.15;;;12.18;;
16862;SDS011;52193;48.216;-1.698;2022-12-20T00:20:57;13.75;;;12.27;;
16862;SDS011;52193;48.216;-1.698;2022-12-20T00:23:24;15.25;;;12.10;;
16862;SDS011;52193;48.216;-1.698;2022-12-20T00:25:51;13.90;;;12.43;;
16862;SDS011;52193;48.216;-1.698;2022-12-20T00:28:20;16.00;;;12.68;;
16862;SDS011;52193;48.216;-1.698;2022-12-20T00:30:51;15.52;;;11.40;;
16862;SDS011;52193;48.216;-1.698;2022-12-20T00:33:19;13.18;;;11.85;;
16862;SDS011;52193;48.216;-1.698;2022-12-20T00:35:46;12.98;;;11.50;;
16862;SDS011;52193;48.216;-1.698;2022-12-20T00:38:13;12.82;;;11.50;;
16862;SDS011;52193;48.216;-1.698;2022-12-20T00:40:40;12.43;;;11.27;;
16862;SDS011;52193;48.216;-1.698;2022-12-20T00:43:07;13.18;;;11.45;;
16862;SDS011;52193;48.216;-1.698;2022-12-20T00:45:35;13.52;;;12.05;;
16862;SDS011;52193;48.216;-1.698;2022-12-20T00:48:02;16.05;;;11.65;;
16862;SDS011;52193;48.216;-1.698;2022-12-20T00:50:29;13.68;;;11.20;;
16862;SDS011;52193;48.216;-1.698;2022-12-20T00:52:56;14.27;;;12.10;;
16862;SDS011;52193;48.216;-1.698;2022-12-20T00:55:23;12.48;;;11.18;;
16862;SDS011;52193;48.216;-1.698;2022-12-20T00:57:50;13.48;;;12.05;;
16862;SDS011;52193;48.216;-1.698;2022-12-20T01:00:18;18.35;;;11.73;;
16862;SDS011;52193;48.216;-1.698;2022-12-20T01:02:47;12.70;;;11.48;;
16862;SDS011;52193;48.216;-1.698;2022-12-20T01:05:13;18.27;;;12.05;;
16862;SDS011;52193;48.216;-1.698;2022-12-20T01:07:41;16.15;;;11.85;;
16862;SDS011;52193;48.216;-1.698;2022-12-20T01:10:08;12.23;;;11.00;;
16862;SDS011;52193;48.216;-1.698;2022-12-20T01:12:36;12.40;;;11.20;;
16862;SDS011;52193;48.216;-1.698;2022-12-20T01:15:03;12.82;;;11.52;;
16862;SDS011;52193;48.216;-1.698;2022-12-20T01:17:31;13.02;;;11.60;;
16862;SDS011;52193;48.216;-1.698;2022-12-20T01:20:00;13.95;;;11.57;;
16862;SDS011;52193;48.216;-1.698;2022-12-20T01:22:27;16.75;;;11.48;;
16862;SDS011;52193;48.216;-1.698;2022-12-20T01:24:54;14.48;;;11.70;;
16862;SDS011;52193;48.216;-1.698;2022-12-20T01:27:21;13.95;;;10.90;;
16862;SDS011;52193;48.216;-1.698;2022-12-20T01:29:48;12.80;;;11.63;;
16862;SDS011;52193;48.216;-1.698;2022-12-20T01:32:15;16.42;;;11.88;;
16862;SDS011;52193;48.216;-1.698;2022-12-20T01:34:42;14.25;;;12.05;;
16862;SDS011;52193;48.216;-1.698;2022-12-20T01:37:10;16.00;;;12.70;;
16862;SDS011;52193;48.216;-1.698;2022-12-20T01:39:37;18.92;;;11.80;;
16862;SDS011;52193;48.216;-1.698;2022-12-20T01:42:04;15.15;;;12.43;;
16862;SDS011;52193;48.216;-1.698;2022-12-20T01:44:51;14.32;;;12.45;;
16862;SDS011;52193;48.216;-1.698;2022-12-20T01:47:22;15.30;;;12.68;;
16862;SDS011;52193;48.216;-1.698;2022-12-20T01:49:50;18.42;;;12.70;;
16862;SDS011;52193;48.216;-1.698;2022-12-20T01:52:23;17.05;;;12.38;;
16862;SDS011;52193;48.216;-1.698;2022-12-20T01:54:55;18.83;;;12.90;;
16862;SDS011;52193;48.216;-1.698;2022-12-20T01:57:30;16.02;;;12.93;;
16862;SDS011;52193;48.216;-1.698;2022-12-20T02:00:01;15.65;;;12.90;;
16862;SDS011;52193;48.216;-1.698;2022-12-20T02:02:29;16.88;;;12.60;;
16862;SDS011;52193;48.216;-1.698;2022-12-20T02:04:57;13.93;;;12.50;;
16862;SDS011;52193;48.216;-1.698;2022-12-20T02:07:27;18.73;;;12.88;;
16862;SDS011;52193;48.216;-1.698;2022-12-20T02:09:57;14.38;;;12.68;;
16862;SDS011;52193;48.216;-1.698;2022-12-20T02:12:27;15.20;;;12.85;;
16862;SDS011;52193;48.216;-1.698;2022-12-20T02:15:14;18.77;;;12.85;;
16862;SDS011;52193;48.216;-1.698;2022-12-20T02:17:52;18.40;;;13.13;;
16862;SDS011;52193;48.216;-1.698;2022-12-20T02:20:38;13.63;;;12.30;;
16862;SDS011;52193;48.216;-1.698;2022-12-20T02:23:22;14.57;;;12.57;;
16862;SDS011;52193;48.216;-1.698;2022-12-20T02:26:03;16.63;;;12.90;;
16862;SDS011;52193;48.216;-1.698;2022-12-20T02:28:49;17.02;;;13.43;;
16862;SDS011;52193;48.216;-1.698;2022-12-20T02:31:32;16.35;;;12.85;;
16862;SDS011;52193;48.216;-1.698;2022-12-20T02:34:05;17.13;;;12.90;;
16862;SDS011;52193;48.216;-1.698;2022-12-20T02:36:33;17.52;;;13.10;;
16862;SDS011;52193;48.216;-1.698;2022-12-20T02:39:00;14.15;;;12.73;;
16862;SDS011;52193;48.216;-1.698;2022-12-20T02:41:28;14.98;;;13.35;;
16862;SDS011;52193;48.216;-1.698;2022-12-20T02:44:00;13.90;;;12.68;;
16862;SDS011;52193;48.216;-1.698;2022-12-20T02:46:49;17.33;;;13.15;;
16862;SDS011;52193;48.216;-1.698;2022-12-20T02:49:18;14.85;;;13.27;;
16862;SDS011;52193;48.216;-1.698;2022-12-20T02:51:48;14.05;;;12.65;;
16862;SDS011;52193;48.216;-1.698;2022-12-20T02:54:17;15.18;;;13.65;;
16862;SDS011;52193;48.216;-1.698;2022-12-20T02:56:46;15.00;;;13.57;;
16862;SDS011;52193;48.216;-1.698;2022-12-20T02:59:18;14.20;;;12.88;;
16862;SDS011;52193;48.216;-1.698;2022-12-20T03:01:50;16.63;;;13.65;;
16862;SDS011;52193;48.216;-1.698;2022-12-20T03:04:20;14.98;;;13.27;;
16862;SDS011;52193;48.216;-1.698;2022-12-20T03:06:56;14.77;;;13.10;;
16862;SDS011;52193;48.216;-1.698;2022-12-20T03:09:27;14.70;;;13.02;;
16862;SDS011;52193;48.216;-1.698;2022-12-20T03:11:55;15.95;;;14.10;;
16862;SDS011;52193;48.216;-1.698;2022-12-20T03:14:22;17.20;;;13.93;;
16862;SDS011;52193;48.216;-1.698;2022-12-20T03:16:51;19.98;;;13.77;;
16862;SDS011;52193;48.216;-1.698;2022-12-20T03:19:19;14.95;;;13.48;;
16862;SDS011;52193;48.216;-1.698;2022-12-20T03:21:46;19.08;;;13.85;;
16862;SDS011;52193;48.216;-1.698;2022-12-20T03:24:13;15.10;;;13.13;;
16862;SDS011;52193;48.216;-1.698;2022-12-20T03:26:40;18.27;;;13.55;;
16862;SDS011;52193;48.216;-1.698;2022-12-20T03:29:08;17.20;;;13.45;;
16862;SDS011;52193;48.216;-1.698;2022-12-20T03:31:36;17.05;;;13.90;;
16862;SDS011;52193;48.216;-1.698;2022-12-20T03:34:04;14.57;;;13.07;;
16862;SDS011;52193;48.216;-1.698;2022-12-20T03:36:32;15.88;;;13.07;;
16862;SDS011;52193;48.216;-1.698;2022-12-20T03:38:59;15.98;;;12.77;;
16862;SDS011;52193;48.216;-1.698;2022-12-20T03:41:26;17.33;;;13.68;;
16862;SDS011;52193;48.216;-1.698;2022-12-20T03:43:53;15.23;;;12.80;;
16862;SDS011;52193;48.216;-1.698;2022-12-20T03:46:20;15.80;;;13.45;;
16862;SDS011;52193;48.216;-1.698;2022-12-20T03:48:47;13.93;;;12.55;;
16862;SDS011;52193;48.216;-1.698;2022-12-20T03:51:15;15.02;;;13.48;;
16862;SDS011;52193;48.216;-1.698;2022-12-20T03:53:42;15.52;;;13.80;;
16862;SDS011;52193;48.216;-1.698;2022-12-20T03:56:09;15.65;;;13.10;;
16862;SDS011;52193;48.216;-1.698;2022-12-20T03:58:36;16.08;;;13.07;;
16862;SDS011;52193;48.216;-1.698;2022-12-20T04:01:14;13.98;;;12.57;;
16862;SDS011;52193;48.216;-1.698;2022-12-20T04:03:43;14.10;;;12.70;;
16862;SDS011;52193;48.216;-1.698;2022-12-20T04:06:10;14.65;;;13.15;;
16862;SDS011;52193;48.216;-1.698;2022-12-20T04:08:38;14.27;;;12.80;;
16862;SDS011;52193;48.216;-1.698;2022-12-20T04:11:05;15.82;;;13.13;;
16862;SDS011;52193;48.216;-1.698;2022-12-20T04:13:42;13.45;;;12.38;;
16862;SDS011;52193;48.216;-1.698;2022-12-20T04:16:09;13.82;;;12.43;;
16862;SDS011;52193;48.216;-1.698;2022-12-20T04:18:37;13.65;;;12.43;;
16862;SDS011;52193;48.216;-1.698;2022-12-20T04:21:04;14.20;;;12.98;;
16862;SDS011;52193;48.216;-1.698;2022-12-20T04:23:32;14.63;;;13.20;;
16862;SDS011;52193;48.216;-1.698;2022-12-20T04:26:01;13.80;;;12.60;;
16862;SDS011;52193;48.216;-1.698;2022-12-20T04:28:28;13.88;;;12.70;;
16862;SDS011;52193;48.216;-1.698;2022-12-20T04:30:56;14.18;;;12.85;;
16862;SDS011;52193;48.216;-1.698;2022-12-20T04:33:23;14.52;;;13.10;;
16862;SDS011;52193;48.216;-1.698;2022-12-20T04:35:51;13.57;;;12.57;;
16862;SDS011;52193;48.216;-1.698;2022-12-20T04:38:19;14.02;;;12.70;;
16862;SDS011;52193;48.216;-1.698;2022-12-20T04:40:47;13.98;;;12.57;;
16862;SDS011;52193;48.216;-1.698;2022-12-20T04:43:16;14.25;;;12.90;;
16862;SDS011;52193;48.216;-1.698;2022-12-20T04:45:44;14.10;;;12.80;;
16862;SDS011;52193;48.216;-1.698;2022-12-20T04:48:13;13.95;;;12.73;;
16862;SDS011;52193;48.216;-1.698;2022-12-20T04:50:40;13.75;;;12.38;;
16862;SDS011;52193;48.216;-1.698;2022-12-20T04:53:07;13.82;;;12.73;;
16862;SDS011;52193;48.216;-1.698;2022-12-20T04:55:53;13.98;;;12.88;;
16862;SDS011;52193;48.216;-1.698;2022-12-20T04:58:22;14.13;;;12.77;;
16862;SDS011;52193;48.216;-1.698;2022-12-20T05:00:49;13.70;;;12.57;;
16862;SDS011;52193;48.216;-1.698;2022-12-20T05:03:17;13.90;;;12.70;;
16862;SDS011;52193;48.216;-1.698;2022-12-20T05:05:44;14.50;;;13.30;;
16862;SDS011;52193;48.216;-1.698;2022-12-20T05:08:12;13.75;;;12.60;;
16862;SDS011;52193;48.216;-1.698;2022-12-20T05:10:39;13.82;;;12.70;;
16862;SDS011;52193;48.216;-1.698;2022-12-20T05:13:06;14.52;;;13.32;;
16862;SDS011;52193;48.216;-1.698;2022-12-20T05:15:35;14.45;;;13.27;;
16862;SDS011;52193;48.216;-1.698;2022-12-20T05:18:02;14.38;;;13.02;;
16862;SDS011;52193;48.216;-1.698;2022-12-20T05:20:29;14.35;;;12.98;;
16862;SDS011;52193;48.216;-1.698;2022-12-20T05:22:57;14.02;;;12.70;;
16862;SDS011;52193;48.216;-1.698;2022-12-20T05:25:43;14.35;;;13.25;;
16862;SDS011;52193;48.216;-1.698;2022-12-20T05:28:25;15.02;;;13.45;;
16862;SDS011;52193;48.216;-1.698;2022-12-20T05:30:53;14.63;;;13.38;;
16862;SDS011;52193;48.216;-1.698;2022-12-20T05:33:21;14.95;;;13.60;;
16862;SDS011;52193;48.216;-1.698;2022-12-20T05:35:48;15.43;;;13.95;;
16862;SDS011;52193;48.216;-1.698;2022-12-20T05:38:15;15.02;;;13.90;;
16862;SDS011;52193;48.216;-1.698;2022-12-20T05:40:42;15.07;;;13.88;;
16862;SDS011;52193;48.216;-1.698;2022-12-20T05:43:09;14.65;;;13.68;;
16862;SDS011;52193;48.216;-1.698;2022-12-20T05:45:35;14.95;;;13.95;;
16862;SDS011;52193;48.216;-1.698;2022-12-20T05:48:04;15.00;;;14.00;;
16862;SDS011;52193;48.216;-1.698;2022-12-20T05:50:31;16.33;;;14.73;;
16862;SDS011;52193;48.216;-1.698;2022-12-20T05:52:59;15.73;;;14.52;;
16862;SDS011;52193;48.216;-1.698;2022-12-20T05:55:26;16.35;;;14.85;;
16862;SDS011;52193;48.216;-1.698;2022-12-20T05:57:53;15.68;;;14.63;;
16862;SDS011;52193;48.216;-1.698;2022-12-20T06:00:20;15.45;;;14.43;;
16862;SDS011;52193;48.216;-1.698;2022-12-20T06:02:47;15.80;;;14.60;;
16862;SDS011;52193;48.216;-1.698;2022-12-20T06:05:15;15.73;;;14.35;;
16862;SDS011;52193;48.216;-1.698;2022-12-20T06:07:42;16.08;;;14.80;;
16862;SDS011;52193;48.216;-1.698;2022-12-20T06:10:10;15.13;;;14.15;;
16862;SDS011;52193;48.216;-1.698;2022-12-20T06:12:37;16.23;;;14.80;;
16862;SDS011;52193;48.216;-1.698;2022-12-20T06:15:04;16.40;;;14.98;;
16862;SDS011;52193;48.216;-1.698;2022-12-20T06:17:33;15.48;;;14.38;;
16862;SDS011;52193;48.216;-1.698;2022-12-20T06:20:00;16.42;;;14.93;;
16862;SDS011;52193;48.216;-1.698;2022-12-20T06:22:29;16.40;;;15.20;;
16862;SDS011;52193;48.216;-1.698;2022-12-20T06:24:57;16.58;;;15.30;;
16862;SDS011;52193;48.216;-1.698;2022-12-20T06:27:24;16.38;;;15.10;;
16862;SDS011;52193;48.216;-1.698;2022-12-20T06:29:51;16.33;;;15.07;;
16862;SDS011;52193;48.216;-1.698;2022-12-20T06:32:18;16.40;;;14.95;;
16862;SDS011;52193;48.216;-1.698;2022-12-20T06:34:45;16.35;;;15.15;;
16862;SDS011;52193;48.216;-1.698;2022-12-20T06:37:12;16.08;;;14.98;;
16862;SDS011;52193;48.216;-1.698;2022-12-20T06:39:41;16.38;;;15.27;;
16862;SDS011;52193;48.216;-1.698;2022-12-20T06:42:08;16.40;;;15.13;;
16862;SDS011;52193;48.216;-1.698;2022-12-20T06:44:35;16.52;;;15.32;;
16862;SDS011;52193;48.216;-1.698;2022-12-20T06:47:02;16.52;;;15.38;;
16862;SDS011;52193;48.216;-1.698;2022-12-20T06:49:29;16.67;;;15.48;;
16862;SDS011;52193;48.216;-1.698;2022-12-20T06:51:56;17.20;;;15.80;;
16862;SDS011;52193;48.216;-1.698;2022-12-20T06:54:23;17.55;;;16.27;;
16862;SDS011;52193;48.216;-1.698;2022-12-20T06:56:51;16.52;;;15.40;;
16862;SDS011;52193;48.216;-1.698;2022-12-20T06:59:18;16.38;;;15.18;;
16862;SDS011;52193;48.216;-1.698;2022-12-20T07:01:45;16.25;;;15.18;;
16862;SDS011;52193;48.216;-1.698;2022-12-20T07:04:12;16.92;;;15.68;;
16862;SDS011;52193;48.216;-1.698;2022-12-20T07:06:39;16.73;;;15.52;;
16862;SDS011;52193;48.216;-1.698;2022-12-20T07:09:06;17.52;;;16.05;;
16862;SDS011;52193;48.216;-1.698;2022-12-20T07:11:34;17.10;;;15.73;;
16862;SDS011;52193;48.216;-1.698;2022-12-20T07:14:03;16.65;;;15.68;;
16862;SDS011;52193;48.216;-1.698;2022-12-20T07:16:30;17.10;;;15.95;;
16862;SDS011;52193;48.216;-1.698;2022-12-20T07:18:57;17.42;;;16.10;;
16862;SDS011;52193;48.216;-1.698;2022-12-20T07:21:24;16.38;;;15.48;;
16862;SDS011;52193;48.216;-1.698;2022-12-20T07:23:51;16.92;;;15.50;;
16862;SDS011;52193;48.216;-1.698;2022-12-20T07:26:20;16.77;;;15.50;;
16862;SDS011;52193;48.216;-1.698;2022-12-20T07:28:47;16.92;;;15.82;;
16862;SDS011;52193;48.216;-1.698;2022-12-20T07:31:15;16.15;;;15.05;;
16862;SDS011;52193;48.216;-1.698;2022-12-20T07:33:42;16.35;;;15.20;;
16862;SDS011;52193;48.216;-1.698;2022-12-20T07:36:10;16.40;;;15.40;;
16862;SDS011;52193;48.216;-1.698;2022-12-20T07:38:38;16.42;;;15.23;;
16862;SDS011;52193;48.216;-1.698;2022-12-20T07:41:06;16.88;;;15.63;;
16862;SDS011;52193;48.216;-1.698;2022-12-20T07:43:33;16.60;;;15.55;;
16862;SDS011;52193;48.216;-1.698;2022-12-20T07:46:00;16.02;;;14.98;;
16862;SDS011;52193;48.216;-1.698;2022-12-20T07:48:29;16.05;;;15.05;;
16862;SDS011;52193;48.216;-1.698;2022-12-20T07:50:57;16.38;;;15.40;;
16862;SDS011;52193;48.216;-1.698;2022-12-20T07:53:27;17.50;;;16.38;;
16862;SDS011;52193;48.216;-1.698;2022-12-20T07:55:56;17.20;;;16.20;;
16862;SDS011;52193;48.216;-1.698;2022-12-20T07:58:26;17.52;;;16.52;;
16862;SDS011;52193;48.216;-1.698;2022-12-20T08:00:55;18.30;;;16.92;;
16862;SDS011;52193;48.216;-1.698;2022-12-20T08:03:24;18.75;;;17.52;;
16862;SDS011;52193;48.216;-1.698;2022-12-20T08:05:57;18.65;;;17.25;;
16862;SDS011;52193;48.216;-1.698;2022-12-20T08:08:28;18.08;;;16.85;;
16862;SDS011;52193;48.216;-1.698;2022-12-20T08:10:57;18.83;;;17.60;;
16862;SDS011;52193;48.216;-1.698;2022-12-20T08:13:25;18.30;;;17.23;;
16862;SDS011;52193;48.216;-1.698;2022-12-20T08:15:52;18.65;;;17.10;;
16862;SDS011;52193;48.216;-1.698;2022-12-20T08:18:19;18.55;;;17.25;;
16862;SDS011;52193;48.216;-1.698;2022-12-20T08:20:46;18.70;;;17.33;;
16862;SDS011;52193;48.216;-1.698;2022-12-20T08:23:14;18.52;;;17.27;;
16862;SDS011;52193;48.216;-1.698;2022-12-20T08:25:41;19.40;;;17.75;;
16862;SDS011;52193;48.216;-1.698;2022-12-20T08:28:08;18.70;;;17.45;;
16862;SDS011;52193;48.216;-1.698;2022-12-20T08:30:35;17.92;;;16.80;;
16862;SDS011;52193;48.216;-1.698;2022-12-20T08:33:03;18.70;;;17.40;;
16862;SDS011;52193;48.216;-1.698;2022-12-20T08:35:30;18.83;;;17.42;;
16862;SDS011;52193;48.216;-1.698;2022-12-20T08:37:57;18.70;;;17.40;;
16862;SDS011;52193;48.216;-1.698;2022-12-20T08:40:26;19.20;;;17.80;;
16862;SDS011;52193;48.216;-1.698;2022-12-20T08:42:53;19.08;;;17.50;;
16862;SDS011;52193;48.216;-1.698;2022-12-20T08:45:19;17.98;;;16.50;;
16862;SDS011;52193;48.216;-1.698;2022-12-20T08:47:46;19.25;;;17.80;;
16862;SDS011;52193;48.216;-1.698;2022-12-20T08:50:13;18.27;;;16.90;;
16862;SDS011;52193;48.216;-1.698;2022-12-20T08:52:40;18.50;;;17.20;;
16862;SDS011;52193;48.216;-1.698;2022-12-20T08:55:08;19.67;;;17.83;;
16862;SDS011;52193;48.216;-1.698;2022-12-20T08:57:36;19.67;;;18.10;;
16862;SDS011;52193;48.216;-1.698;2022-12-20T09:00:03;19.25;;;17.77;;
16862;SDS011;52193;48.216;-1.698;2022-12-20T09:02:31;18.88;;;17.67;;
16862;SDS011;52193;48.216;-1.698;2022-12-20T09:05:02;19.95;;;18.33;;
16862;SDS011;52193;48.216;-1.698;2022-12-20T09:07:29;20.25;;;18.60;;
16862;SDS011;52193;48.216;-1.698;2022-12-20T09:09:56;19.50;;;18.17;;
16862;SDS011;52193;48.216;-1.698;2022-12-20T09:12:23;20.60;;;18.88;;
16862;SDS011;52193;48.216;-1.698;2022-12-20T09:14:51;20.65;;;18.83;;
16862;SDS011;52193;48.216;-1.698;2022-12-20T09:17:18;20.52;;;18.85;;
16862;SDS011;52193;48.216;-1.698;2022-12-20T09:19:45;20.02;;;18.45;;
16862;SDS011;52193;48.216;-1.698;2022-12-20T09:22:12;20.05;;;18.45;;
16862;SDS011;52193;48.216;-1.698;2022-12-20T09:24:39;20.45;;;18.55;;
16862;SDS011;52193;48.216;-1.698;2022-12-20T09:27:06;20.95;;;19.15;;
16862;SDS011;52193;48.216;-1.698;2022-12-20T09:29:33;20.63;;;18.15;;
16862;SDS011;52193;48.216;-1.698;2022-12-20T09:32:01;21.67;;;19.48;;
16862;SDS011;52193;48.216;-1.698;2022-12-20T09:34:28;20.35;;;18.50;;
16862;SDS011;52193;48.216;-1.698;2022-12-20T09:36:55;20.15;;;18.33;;
16862;SDS011;52193;48.216;-1.698;2022-12-20T09:39:22;21.02;;;19.10;;
16862;SDS011;52193;48.216;-1.698;2022-12-20T09:41:49;21.75;;;19.58;;
16862;SDS011;52193;48.216;-1.698;2022-12-20T09:44:17;22.10;;;19.80;;
16862;SDS011;52193;48.216;-1.698;2022-12-20T09:46:48;22.17;;;19.95;;
16862;SDS011;52193;48.216;-1.698;2022-12-20T09:49:20;22.92;;;20.60;;
16862;SDS011;52193;48.216;-1.698;2022-12-20T09:54:56;23.55;;;21.35;;
16862;SDS011;52193;48.216;-1.698;2022-12-20T09:57:35;25.02;;;22.33;;
16862;SDS011;52193;48.216;-1.698;2022-12-20T10:00:14;28.23;;;21.83;;
16862;SDS011;52193;48.216;-1.698;2022-12-20T10:02:42;22.98;;;20.67;;
16862;SDS011;52193;48.216;-1.698;2022-12-20T10:05:12;23.42;;;20.92;;
16862;SDS011;52193;48.216;-1.698;2022-12-20T10:07:46;26.65;;;21.35;;
16862;SDS011;52193;48.216;-1.698;2022-12-20T10:13:22;23.73;;;21.20;;
16862;SDS011;52193;48.216;-1.698;2022-12-20T10:16:06;21.25;;;19.20;;
16862;SDS011;52193;48.216;-1.698;2022-12-20T10:18:55;21.63;;;19.48;;
16862;SDS011;52193;48.216;-1.698;2022-12-20T10:21:33;21.42;;;19.35;;
16862;SDS011;52193;48.216;-1.698;2022-12-20T10:24:09;20.38;;;18.40;;
16862;SDS011;52193;48.216;-1.698;2022-12-20T10:26:40;19.65;;;18.08;;
16862;SDS011;52193;48.216;-1.698;2022-12-20T10:29:08;19.48;;;17.70;;
16862;SDS011;52193;48.216;-1.698;2022-12-20T10:31:37;19.02;;;17.50;;
16862;SDS011;52193;48.216;-1.698;2022-12-20T10:34:04;18.02;;;16.77;;
16862;SDS011;52193;48.216;-1.698;2022-12-20T10:36:33;18.85;;;17.27;;
16862;SDS011;52193;48.216;-1.698;2022-12-20T10:39:02;17.60;;;16.33;;
16862;SDS011;52193;48.216;-1.698;2022-12-20T10:41:32;17.45;;;16.23;;
16862;SDS011;52193;48.216;-1.698;2022-12-20T10:44:15;17.13;;;16.05;;
16862;SDS011;52193;48.216;-1.698;2022-12-20T10:46:46;17.60;;;16.50;;
16862;SDS011;52193;48.216;-1.698;2022-12-20T10:49:22;17.30;;;16.27;;
16862;SDS011;52193;48.216;-1.698;2022-12-20T10:51:57;16.77;;;15.68;;
16862;SDS011;52193;48.216;-1.698;2022-12-20T10:54:27;16.85;;;15.88;;
16862;SDS011;52193;48.216;-1.698;2022-12-20T10:56:57;17.13;;;16.10;;
16862;SDS011;52193;48.216;-1.698;2022-12-20T10:59:28;17.02;;;16.00;;
16862;SDS011;52193;48.216;-1.698;2022-12-20T11:01:58;17.73;;;16.25;;
16862;SDS011;52193;48.216;-1.698;2022-12-20T11:04:26;17.15;;;16.30;;
16862;SDS011;52193;48.216;-1.698;2022-12-20T11:06:56;18.08;;;16.90;;
16862;SDS011;52193;48.216;-1.698;2022-12-20T11:09:25;17.90;;;16.90;;
16862;SDS011;52193;48.216;-1.698;2022-12-20T11:11:58;18.45;;;17.25;;
16862;SDS011;52193;48.216;-1.698;2022-12-20T11:14:27;17.98;;;16.98;;
16862;SDS011;52193;48.216;-1.698;2022-12-20T11:16:56;18.80;;;17.67;;
16862;SDS011;52193;48.216;-1.698;2022-12-20T11:19:37;18.38;;;16.83;;
16862;SDS011;52193;48.216;-1.698;2022-12-20T11:22:24;18.23;;;17.08;;
16862;SDS011;52193;48.216;-1.698;2022-12-20T11:25:02;17.92;;;16.92;;
16862;SDS011;52193;48.216;-1.698;2022-12-20T11:27:43;18.27;;;17.17;;
16862;SDS011;52193;48.216;-1.698;2022-12-20T11:30:20;17.77;;;16.67;;
16862;SDS011;52193;48.216;-1.698;2022-12-20T11:35:38;19.50;;;18.00;;
16862;SDS011;52193;48.216;-1.698;2022-12-20T11:38:16;18.80;;;17.45;;
16862;SDS011;52193;48.216;-1.698;2022-12-20T11:40:54;18.48;;;17.42;;
16862;SDS011;52193;48.216;-1.698;2022-12-20T11:46:39;18.17;;;17.08;;
16862;SDS011;52193;48.216;-1.698;2022-12-20T11:49:19;18.73;;;17.45;;
16862;SDS011;52193;48.216;-1.698;2022-12-20T11:52:00;20.27;;;18.27;;
16862;SDS011;52193;48.216;-1.698;2022-12-20T11:54:33;19.83;;;18.02;;
16862;SDS011;52193;48.216;-1.698;2022-12-20T11:57:09;21.35;;;19.95;;
16862;SDS011;52193;48.216;-1.698;2022-12-20T11:59:42;20.90;;;19.50;;
16862;SDS011;52193;48.216;-1.698;2022-12-20T12:02:17;20.23;;;18.67;;
16862;SDS011;52193;48.216;-1.698;2022-12-20T12:04:53;20.23;;;18.92;;
16862;SDS011;52193;48.216;-1.698;2022-12-20T12:07:24;19.33;;;18.23;;
16862;SDS011;52193;48.216;-1.698;2022-12-20T12:09:57;18.60;;;17.42;;
16862;SDS011;52193;48.216;-1.698;2022-12-20T12:12:27;17.77;;;16.88;;
16862;SDS011;52193;48.216;-1.698;2022-12-20T12:14:58;20.48;;;19.38;;
16862;SDS011;52193;48.216;-1.698;2022-12-20T12:17:30;21.25;;;19.88;;
16862;SDS011;52193;48.216;-1.698;2022-12-20T12:22:55;22.23;;;20.90;;
16862;SDS011;52193;48.216;-1.698;2022-12-20T12:25:28;23.00;;;21.85;;
16862;SDS011;52193;48.216;-1.698;2022-12-20T12:27:55;19.30;;;18.40;;
16862;SDS011;52193;48.216;-1.698;2022-12-20T12:30:22;18.95;;;18.15;;
16862;SDS011;52193;48.216;-1.698;2022-12-20T12:32:51;18.48;;;17.58;;
16862;SDS011;52193;48.216;-1.698;2022-12-20T12:35:23;18.92;;;17.92;;
16862;SDS011;52193;48.216;-1.698;2022-12-20T12:41:27;16.33;;;15.63;;
16862;SDS011;52193;48.216;-1.698;2022-12-20T12:44:21;15.05;;;14.45;;
16862;SDS011;52193;48.216;-1.698;2022-12-20T12:46:58;15.10;;;14.50;;
16862;SDS011;52193;48.216;-1.698;2022-12-20T12:49:29;14.95;;;14.35;;
16862;SDS011;52193;48.216;-1.698;2022-12-20T12:51:57;17.38;;;16.63;;
16862;SDS011;52193;48.216;-1.698;2022-12-20T12:54:26;16.58;;;15.77;;
16862;SDS011;52193;48.216;-1.698;2022-12-20T12:56:59;16.88;;;16.08;;
16862;SDS011;52193;48.216;-1.698;2022-12-20T13:02:24;16.42;;;15.45;;
16862;SDS011;52193;48.216;-1.698;2022-12-20T13:05:30;13.20;;;12.70;;
16862;SDS011;52193;48.216;-1.698;2022-12-20T13:07:59;14.57;;;13.80;;
16862;SDS011;52193;48.216;-1.698;2022-12-20T13:13:34;13.80;;;13.30;;
16862;SDS011;52193;48.216;-1.698;2022-12-20T13:16:12;14.77;;;14.07;;
16862;SDS011;52193;48.216;-1.698;2022-12-20T13:19:04;13.93;;;13.32;;
16862;SDS011;52193;48.216;-1.698;2022-12-20T13:21:37;21.35;;;20.25;;
16862;SDS011;52193;48.216;-1.698;2022-12-20T13:27:25;14.80;;;14.20;;
16862;SDS011;52193;48.216;-1.698;2022-12-20T13:33:02;22.20;;;21.00;;
16862;SDS011;52193;48.216;-1.698;2022-12-20T13:35:53;15.77;;;15.07;;
16862;SDS011;52193;48.216;-1.698;2022-12-20T13:38:36;17.50;;;16.63;;
16862;SDS011;52193;48.216;-1.698;2022-12-20T13:41:18;13.75;;;13.15;;
16862;SDS011;52193;48.216;-1.698;2022-12-20T13:43:51;12.73;;;12.13;;
16862;SDS011;52193;48.216;-1.698;2022-12-20T13:46:23;12.32;;;11.82;;
16862;SDS011;52193;48.216;-1.698;2022-12-20T13:48:53;13.50;;;13.00;;
16862;SDS011;52193;48.216;-1.698;2022-12-20T13:51:25;12.60;;;12.10;;
16862;SDS011;52193;48.216;-1.698;2022-12-20T13:53:54;11.85;;;11.38;;
16862;SDS011;52193;48.216;-1.698;2022-12-20T13:56:34;12.60;;;12.10;;
16862;SDS011;52193;48.216;-1.698;2022-12-20T13:59:06;12.25;;;11.85;;
16862;SDS011;52193;48.216;-1.698;2022-12-20T14:01:47;12.50;;;12.00;;
16862;SDS011;52193;48.216;-1.698;2022-12-20T14:04:15;12.30;;;11.80;;
16862;SDS011;52193;48.216;-1.698;2022-12-20T14:06:43;12.48;;;11.98;;
16862;SDS011;52193;48.216;-1.698;2022-12-20T14:12:01;12.82;;;12.32;;
16862;SDS011;52193;48.216;-1.698;2022-12-20T14:14:35;13.60;;;13.10;;
16862;SDS011;52193;48.216;-1.698;2022-12-20T14:20:20;13.02;;;12.52;;
16862;SDS011;52193;48.216;-1.698;2022-12-20T14:22:52;17.20;;;16.40;;
16862;SDS011;52193;48.216;-1.698;2022-12-20T14:25:26;13.38;;;12.88;;
16862;SDS011;52193;48.216;-1.698;2022-12-20T14:27:57;12.50;;;12.00;;
16862;SDS011;52193;48.216;-1.698;2022-12-20T14:30:31;12.80;;;12.30;;
16862;SDS011;52193;48.216;-1.698;2022-12-20T14:33:02;12.80;;;12.27;;
16862;SDS011;52193;48.216;-1.698;2022-12-20T14:35:29;12.10;;;11.60;;
16862;SDS011;52193;48.216;-1.698;2022-12-20T14:37:57;12.63;;;12.13;;
16862;SDS011;52193;48.216;-1.698;2022-12-20T14:40:26;13.05;;;12.48;;
16862;SDS011;52193;48.216;-1.698;2022-12-20T14:42:54;14.98;;;14.27;;
16862;SDS011;52193;48.216;-1.698;2022-12-20T14:45:23;12.82;;;12.30;;
16862;SDS011;52193;48.216;-1.698;2022-12-20T14:47:56;12.50;;;11.90;;
16862;SDS011;52193;48.216;-1.698;2022-12-20T14:50:28;11.93;;;11.32;;
16862;SDS011;52193;48.216;-1.698;2022-12-20T14:52:58;12.32;;;11.70;;
16862;SDS011;52193;48.216;-1.698;2022-12-20T14:55:29;11.55;;;10.95;;
16862;SDS011;52193;48.216;-1.698;2022-12-20T14:58:00;12.82;;;12.10;;
16862;SDS011;52193;48.216;-1.698;2022-12-20T15:00:31;11.88;;;11.38;;
16862;SDS011;52193;48.216;-1.698;2022-12-20T15:03:01;12.07;;;11.55;;